sensor_id;sensor_type;location;lat;lon;timestamp;pressure;altitude;pressure_sealevel;temperature;humidity
18987;BME280;9627;59.236;18.142;2022-07-04T00:01:07;101223.72;;;15.30;100.00
18987;BME280;9627;59.236;18.142;2022-07-04T00:03:34;101226.19;;;15.31;100.00
18987;BME280;9627;59.236;18.142;2022-07-04T00:06:00;101224.16;;;15.40;100.00
18987;BME280;9627;59.236;18.142;2022-07-04T00:08:26;101221.31;;;15.41;100.00
18987;BME280;9627;59.236;18.142;2022-07-04T00:10:53;101223.13;;;15.41;100.00
18987;BME280;9627;59.236;18.142;2022-07-04T00:13:19;101218.03;;;15.46;100.00
18987;BME280;9627;59.236;18.142;2022-07-04T00:15:47;101221.97;;;15.63;100.00
18987;BME280;9627;59.236;18.142;2022-07-04T00:18:14;101220.94;;;15.64;100.00
18987;BME280;9627;59.236;18.142;2022-07-04T00:20:41;101222.97;;;15.49;100.00
18987;BME280;9627;59.236;18.142;2022-07-04T00:23:08;101213.72;;;15.45;100.00
18987;BME280;9627;59.236;18.142;2022-07-04T00:25:34;101218.44;;;15.43;100.00
18987;BME280;9627;59.236;18.142;2022-07-04T00:28:01;101222.16;;;15.55;100.00
18987;BME280;9627;59.236;18.142;2022-07-04T00:30:28;101213.53;;;15.59;100.00
18987;BME280;9627;59.236;18.142;2022-07-04T00:32:56;101214.13;;;15.55;100.00
18987;BME280;9627;59.236;18.142;2022-07-04T00:35:23;101201.19;;;15.52;100.00
18987;BME280;9627;59.236;18.142;2022-07-04T00:37:50;101203.22;;;15.43;100.00
18987;BME280;9627;59.236;18.142;2022-07-04T00:40:16;101201.56;;;15.49;100.00
18987;BME280;9627;59.236;18.142;2022-07-04T00:42:43;101208.34;;;15.45;100.00
18987;BME280;9627;59.236;18.142;2022-07-04T00:45:10;101203.44;;;15.68;100.00
18987;BME280;9627;59.236;18.142;2022-07-04T00:47:36;101206.53;;;15.78;100.00
18987;BME280;9627;59.236;18.142;2022-07-04T00:50:05;101210.22;;;15.64;100.00
18987;BME280;9627;59.236;18.142;2022-07-04T00:52:32;101206.31;;;15.60;100.00
18987;BME280;9627;59.236;18.142;2022-07-04T00:54:58;101201.19;;;15.52;100.00
18987;BME280;9627;59.236;18.142;2022-07-04T00:57:27;101200.75;;;15.55;100.00
18987;BME280;9627;59.236;18.142;2022-07-04T00:59:54;101194.97;;;15.45;100.00
18987;BME280;9627;59.236;18.142;2022-07-04T01:02:20;101194.38;;;15.56;100.00
18987;BME280;9627;59.236;18.142;2022-07-04T01:04:47;101195.19;;;15.43;100.00
18987;BME280;9627;59.236;18.142;2022-07-04T01:07:15;101185.47;;;15.36;100.00
18987;BME280;9627;59.236;18.142;2022-07-04T01:09:42;101188.56;;;15.33;100.00
18987;BME280;9627;59.236;18.142;2022-07-04T01:12:10;101194.38;;;15.49;100.00
18987;BME280;9627;59.236;18.142;2022-07-04T01:14:36;101185.53;;;15.49;100.00
18987;BME280;9627;59.236;18.142;2022-07-04T01:17:03;101191.06;;;15.54;100.00
18987;BME280;9627;59.236;18.142;2022-07-04T01:19:30;101187.19;;;15.50;100.00
18987;BME280;9627;59.236;18.142;2022-07-04T01:21:58;101184.50;;;15.43;100.00
18987;BME280;9627;59.236;18.142;2022-07-04T01:24:25;101191.69;;;15.43;100.00
18987;BME280;9627;59.236;18.142;2022-07-04T01:26:52;101185.69;;;15.34;100.00
18987;BME280;9627;59.236;18.142;2022-07-04T01:29:18;101185.91;;;15.33;100.00
18987;BME280;9627;59.236;18.142;2022-07-04T01:31:45;101187.13;;;15.30;100.00
18987;BME280;9627;59.236;18.142;2022-07-04T01:34:12;101181.97;;;15.16;100.00
18987;BME280;9627;59.236;18.142;2022-07-04T01:36:38;101185.03;;;15.13;100.00
18987;BME280;9627;59.236;18.142;2022-07-04T01:39:06;101177.03;;;15.26;100.00
18987;BME280;9627;59.236;18.142;2022-07-04T01:41:33;101177.25;;;15.37;100.00
18987;BME280;9627;59.236;18.142;2022-07-04T01:44:00;101172.78;;;15.44;100.00
18987;BME280;9627;59.236;18.142;2022-07-04T01:46:27;101173.78;;;15.43;100.00
18987;BME280;9627;59.236;18.142;2022-07-04T01:48:54;101176.06;;;15.53;100.00
18987;BME280;9627;59.236;18.142;2022-07-04T01:51:20;101180.34;;;15.34;100.00
18987;BME280;9627;59.236;18.142;2022-07-04T01:53:47;101177.22;;;15.18;100.00
18987;BME280;9627;59.236;18.142;2022-07-04T01:56:15;101176.03;;;15.40;100.00
18987;BME280;9627;59.236;18.142;2022-07-04T01:58:42;101183.81;;;15.22;100.00
18987;BME280;9627;59.236;18.142;2022-07-04T02:01:08;101172.88;;;15.10;100.00
18987;BME280;9627;59.236;18.142;2022-07-04T02:03:52;101175.38;;;15.25;100.00
18987;BME280;9627;59.236;18.142;2022-07-04T02:06:19;101176.47;;;15.43;100.00
18987;BME280;9627;59.236;18.142;2022-07-04T02:08:45;101166.16;;;15.47;100.00
18987;BME280;9627;59.236;18.142;2022-07-04T02:11:31;101168.22;;;15.45;100.00
18987;BME280;9627;59.236;18.142;2022-07-04T02:14:17;101166.38;;;15.45;100.00
18987;BME280;9627;59.236;18.142;2022-07-04T02:16:43;101180.16;;;15.49;100.00
18987;BME280;9627;59.236;18.142;2022-07-04T02:19:10;101163.72;;;15.52;100.00
18987;BME280;9627;59.236;18.142;2022-07-04T02:21:36;101156.72;;;15.57;100.00
18987;BME280;9627;59.236;18.142;2022-07-04T02:24:03;101162.88;;;15.58;100.00
18987;BME280;9627;59.236;18.142;2022-07-04T02:26:31;101152.81;;;15.66;100.00
18987;BME280;9627;59.236;18.142;2022-07-04T02:28:58;101160.00;;;15.66;100.00
18987;BME280;9627;59.236;18.142;2022-07-04T02:31:25;101157.53;;;15.71;100.00
18987;BME280;9627;59.236;18.142;2022-07-04T02:33:52;101157.72;;;15.82;100.00
18987;BME280;9627;59.236;18.142;2022-07-04T02:36:19;101152.38;;;15.76;100.00
18987;BME280;9627;59.236;18.142;2022-07-04T02:38:45;101149.69;;;15.82;100.00
18987;BME280;9627;59.236;18.142;2022-07-04T02:41:12;101151.75;;;15.94;100.00
18987;BME280;9627;59.236;18.142;2022-07-04T02:43:40;101162.63;;;15.92;100.00
18987;BME280;9627;59.236;18.142;2022-07-04T02:46:07;101158.31;;;16.04;100.00
18987;BME280;9627;59.236;18.142;2022-07-04T02:48:33;101159.53;;;16.08;100.00
18987;BME280;9627;59.236;18.142;2022-07-04T02:50:59;101153.75;;;16.11;100.00
18987;BME280;9627;59.236;18.142;2022-07-04T02:53:26;101151.91;;;16.12;100.00
18987;BME280;9627;59.236;18.142;2022-07-04T02:55:53;101147.16;;;16.14;100.00
18987;BME280;9627;59.236;18.142;2022-07-04T02:58:19;101137.06;;;16.09;100.00
18987;BME280;9627;59.236;18.142;2022-07-04T03:00:47;101147.78;;;16.09;100.00
18987;BME280;9627;59.236;18.142;2022-07-04T03:03:14;101134.31;;;16.35;100.00
18987;BME280;9627;59.236;18.142;2022-07-04T03:05:40;101136.91;;;16.99;100.00
18987;BME280;9627;59.236;18.142;2022-07-04T03:08:07;101136.72;;;18.17;100.00
18987;BME280;9627;59.236;18.142;2022-07-04T03:10:33;101124.59;;;18.51;100.00
18987;BME280;9627;59.236;18.142;2022-07-04T03:13:00;101118.28;;;18.39;100.00
18987;BME280;9627;59.236;18.142;2022-07-04T03:15:26;101116.38;;;18.28;100.00
18987;BME280;9627;59.236;18.142;2022-07-04T03:17:54;101127.47;;;18.31;100.00
18987;BME280;9627;59.236;18.142;2022-07-04T03:20:21;101128.91;;;18.70;100.00
18987;BME280;9627;59.236;18.142;2022-07-04T03:22:48;101129.56;;;18.66;100.00
18987;BME280;9627;59.236;18.142;2022-07-04T03:25:16;101131.44;;;18.95;100.00
18987;BME280;9627;59.236;18.142;2022-07-04T03:27:43;101127.84;;;19.01;100.00
18987;BME280;9627;59.236;18.142;2022-07-04T03:30:10;101118.25;;;19.46;100.00
18987;BME280;9627;59.236;18.142;2022-07-04T03:32:36;101115.31;;;19.94;100.00
18987;BME280;9627;59.236;18.142;2022-07-04T03:35:05;101111.84;;;20.45;100.00
18987;BME280;9627;59.236;18.142;2022-07-04T03:37:32;101107.56;;;20.88;100.00
18987;BME280;9627;59.236;18.142;2022-07-04T03:39:59;101109.84;;;20.96;100.00
18987;BME280;9627;59.236;18.142;2022-07-04T03:42:25;101110.50;;;20.59;100.00
18987;BME280;9627;59.236;18.142;2022-07-04T03:44:52;101102.41;;;20.59;100.00
18987;BME280;9627;59.236;18.142;2022-07-04T03:47:19;101108.69;;;20.76;100.00
18987;BME280;9627;59.236;18.142;2022-07-04T03:49:46;101110.91;;;21.23;100.00
18987;BME280;9627;59.236;18.142;2022-07-04T03:52:14;101101.91;;;21.51;100.00
18987;BME280;9627;59.236;18.142;2022-07-04T03:54:41;101113.19;;;21.48;100.00
18987;BME280;9627;59.236;18.142;2022-07-04T03:57:07;101109.81;;;21.74;100.00
18987;BME280;9627;59.236;18.142;2022-07-04T03:59:34;101105.75;;;21.55;100.00
18987;BME280;9627;59.236;18.142;2022-07-04T04:02:00;101103.84;;;21.72;100.00
18987;BME280;9627;59.236;18.142;2022-07-04T04:04:27;101099.53;;;21.05;100.00
18987;BME280;9627;59.236;18.142;2022-07-04T04:07:11;101105.06;;;21.65;100.00
18987;BME280;9627;59.236;18.142;2022-07-04T04:09:39;101098.94;;;21.86;100.00
18987;BME280;9627;59.236;18.142;2022-07-04T04:12:06;101094.06;;;22.26;100.00
18987;BME280;9627;59.236;18.142;2022-07-04T04:14:33;101085.13;;;22.26;100.00
18987;BME280;9627;59.236;18.142;2022-07-04T04:17:00;101093.66;;;21.79;100.00
18987;BME280;9627;59.236;18.142;2022-07-04T04:19:27;101080.53;;;22.48;100.00
18987;BME280;9627;59.236;18.142;2022-07-04T04:21:53;101082.72;;;22.51;100.00
18987;BME280;9627;59.236;18.142;2022-07-04T04:24:20;101088.06;;;22.67;100.00
18987;BME280;9627;59.236;18.142;2022-07-04T04:26:48;101077.56;;;22.28;100.00
18987;BME280;9627;59.236;18.142;2022-07-04T04:29:15;101081.66;;;22.52;100.00
18987;BME280;9627;59.236;18.142;2022-07-04T04:31:42;101069.47;;;22.49;100.00
18987;BME280;9627;59.236;18.142;2022-07-04T04:34:08;101075.38;;;22.99;100.00
18987;BME280;9627;59.236;18.142;2022-07-04T04:36:35;101066.84;;;22.33;100.00
18987;BME280;9627;59.236;18.142;2022-07-04T04:39:02;101072.16;;;22.97;100.00
18987;BME280;9627;59.236;18.142;2022-07-04T04:41:28;101072.47;;;23.74;100.00
18987;BME280;9627;59.236;18.142;2022-07-04T04:43:56;101069.81;;;24.41;100.00
18987;BME280;9627;59.236;18.142;2022-07-04T04:46:23;101065.63;;;24.09;100.00
18987;BME280;9627;59.236;18.142;2022-07-04T04:48:50;101067.59;;;24.28;100.00
18987;BME280;9627;59.236;18.142;2022-07-04T04:51:16;101070.00;;;24.20;100.00
18987;BME280;9627;59.236;18.142;2022-07-04T04:53:43;101073.78;;;23.30;100.00
18987;BME280;9627;59.236;18.142;2022-07-04T04:56:09;101072.78;;;23.83;100.00
18987;BME280;9627;59.236;18.142;2022-07-04T04:58:36;101068.84;;;24.88;100.00
18987;BME280;9627;59.236;18.142;2022-07-04T05:01:04;101074.94;;;24.33;100.00
18987;BME280;9627;59.236;18.142;2022-07-04T05:03:31;101062.50;;;24.47;100.00
18987;BME280;9627;59.236;18.142;2022-07-04T05:05:57;101063.41;;;25.58;100.00
18987;BME280;9627;59.236;18.142;2022-07-04T05:08:24;101064.91;;;25.99;100.00
18987;BME280;9627;59.236;18.142;2022-07-04T05:10:51;101064.41;;;25.92;100.00
18987;BME280;9627;59.236;18.142;2022-07-04T05:13:18;101060.72;;;25.18;100.00
18987;BME280;9627;59.236;18.142;2022-07-04T05:15:45;101059.34;;;24.80;100.00
18987;BME280;9627;59.236;18.142;2022-07-04T05:18:13;101054.63;;;23.83;100.00
18987;BME280;9627;59.236;18.142;2022-07-04T05:20:40;101050.41;;;22.61;100.00
18987;BME280;9627;59.236;18.142;2022-07-04T05:23:07;101052.47;;;22.80;100.00
18987;BME280;9627;59.236;18.142;2022-07-04T05:25:34;101056.22;;;23.38;100.00
18987;BME280;9627;59.236;18.142;2022-07-04T05:28:01;101049.19;;;23.37;100.00
18987;BME280;9627;59.236;18.142;2022-07-04T05:30:27;101056.84;;;22.11;100.00
18987;BME280;9627;59.236;18.142;2022-07-04T05:32:54;101044.47;;;21.77;100.00
18987;BME280;9627;59.236;18.142;2022-07-04T05:35:24;101036.59;;;22.89;100.00
18987;BME280;9627;59.236;18.142;2022-07-04T05:37:52;101036.91;;;22.44;100.00
18987;BME280;9627;59.236;18.142;2022-07-04T05:40:19;101038.50;;;21.92;100.00
18987;BME280;9627;59.236;18.142;2022-07-04T05:42:47;101028.63;;;22.77;100.00
18987;BME280;9627;59.236;18.142;2022-07-04T05:45:13;101010.63;;;22.88;100.00
18987;BME280;9627;59.236;18.142;2022-07-04T05:47:40;101019.28;;;23.63;100.00
18987;BME280;9627;59.236;18.142;2022-07-04T05:50:07;101021.06;;;25.12;100.00
18987;BME280;9627;59.236;18.142;2022-07-04T05:52:36;101015.06;;;25.30;100.00
18987;BME280;9627;59.236;18.142;2022-07-04T05:55:03;101016.34;;;25.78;100.00
18987;BME280;9627;59.236;18.142;2022-07-04T05:57:31;100997.09;;;27.81;100.00
18987;BME280;9627;59.236;18.142;2022-07-04T05:59:58;100997.75;;;26.92;100.00
18987;BME280;9627;59.236;18.142;2022-07-04T06:02:24;101010.69;;;25.64;100.00
18987;BME280;9627;59.236;18.142;2022-07-04T06:04:51;100995.66;;;25.82;100.00
18987;BME280;9627;59.236;18.142;2022-07-04T06:07:17;100996.50;;;25.67;100.00
18987;BME280;9627;59.236;18.142;2022-07-04T06:09:46;100996.78;;;25.65;100.00
18987;BME280;9627;59.236;18.142;2022-07-04T06:12:12;101002.06;;;24.92;100.00
18987;BME280;9627;59.236;18.142;2022-07-04T06:14:39;101008.34;;;26.01;100.00
18987;BME280;9627;59.236;18.142;2022-07-04T06:17:06;101001.97;;;25.62;100.00
18987;BME280;9627;59.236;18.142;2022-07-04T06:19:32;100996.59;;;26.21;100.00
18987;BME280;9627;59.236;18.142;2022-07-04T06:21:59;100991.91;;;26.26;100.00
18987;BME280;9627;59.236;18.142;2022-07-04T06:24:25;101002.59;;;26.13;100.00
18987;BME280;9627;59.236;18.142;2022-07-04T06:26:53;101001.16;;;26.69;100.00
18987;BME280;9627;59.236;18.142;2022-07-04T06:29:20;100999.94;;;26.90;100.00
18987;BME280;9627;59.236;18.142;2022-07-04T06:31:47;100996.59;;;25.02;100.00
18987;BME280;9627;59.236;18.142;2022-07-04T06:34:13;100997.16;;;26.03;100.00
18987;BME280;9627;59.236;18.142;2022-07-04T06:36:57;100994.50;;;25.98;100.00
18987;BME280;9627;59.236;18.142;2022-07-04T06:39:24;100998.47;;;25.51;100.00
18987;BME280;9627;59.236;18.142;2022-07-04T06:41:50;100998.41;;;25.66;100.00
18987;BME280;9627;59.236;18.142;2022-07-04T06:44:18;100984.06;;;25.51;100.00
18987;BME280;9627;59.236;18.142;2022-07-04T06:46:45;100978.88;;;25.64;100.00
18987;BME280;9627;59.236;18.142;2022-07-04T06:49:11;100984.84;;;26.69;100.00
18987;BME280;9627;59.236;18.142;2022-07-04T06:51:38;100971.34;;;27.45;100.00
18987;BME280;9627;59.236;18.142;2022-07-04T06:54:05;100975.97;;;25.11;100.00
18987;BME280;9627;59.236;18.142;2022-07-04T06:56:32;100986.34;;;26.85;100.00
18987;BME280;9627;59.236;18.142;2022-07-04T06:58:59;100974.66;;;26.46;100.00
18987;BME280;9627;59.236;18.142;2022-07-04T07:01:29;100983.06;;;24.76;100.00
18987;BME280;9627;59.236;18.142;2022-07-04T07:03:56;100977.16;;;23.98;100.00
18987;BME280;9627;59.236;18.142;2022-07-04T07:06:23;100979.94;;;23.51;100.00
18987;BME280;9627;59.236;18.142;2022-07-04T07:08:50;100982.88;;;23.44;100.00
18987;BME280;9627;59.236;18.142;2022-07-04T07:11:16;100982.91;;;22.76;100.00
18987;BME280;9627;59.236;18.142;2022-07-04T07:13:45;100987.19;;;22.72;100.00
18987;BME280;9627;59.236;18.142;2022-07-04T07:16:12;100989.13;;;23.13;100.00
18987;BME280;9627;59.236;18.142;2022-07-04T07:18:41;100989.63;;;23.05;100.00
18987;BME280;9627;59.236;18.142;2022-07-04T07:21:07;100984.69;;;22.97;100.00
18987;BME280;9627;59.236;18.142;2022-07-04T07:23:36;100986.63;;;22.43;100.00
18987;BME280;9627;59.236;18.142;2022-07-04T07:26:03;100980.41;;;21.94;100.00
18987;BME280;9627;59.236;18.142;2022-07-04T07:28:30;100963.56;;;21.87;100.00
18987;BME280;9627;59.236;18.142;2022-07-04T07:30:56;100956.03;;;21.51;100.00
18987;BME280;9627;59.236;18.142;2022-07-04T07:33:23;100942.72;;;21.66;100.00
18987;BME280;9627;59.236;18.142;2022-07-04T07:35:51;100959.16;;;21.60;100.00
18987;BME280;9627;59.236;18.142;2022-07-04T07:38:18;100963.72;;;22.02;100.00
18987;BME280;9627;59.236;18.142;2022-07-04T07:40:45;100959.47;;;22.60;100.00
18987;BME280;9627;59.236;18.142;2022-07-04T07:43:11;100965.44;;;22.08;100.00
18987;BME280;9627;59.236;18.142;2022-07-04T07:45:38;100966.34;;;23.09;100.00
18987;BME280;9627;59.236;18.142;2022-07-04T07:48:04;100965.91;;;23.69;100.00
18987;BME280;9627;59.236;18.142;2022-07-04T07:50:31;100965.59;;;24.37;100.00
18987;BME280;9627;59.236;18.142;2022-07-04T07:53:00;100960.47;;;25.26;100.00
18987;BME280;9627;59.236;18.142;2022-07-04T07:55:26;100952.09;;;24.88;100.00
18987;BME280;9627;59.236;18.142;2022-07-04T07:57:53;100953.53;;;23.88;100.00
18987;BME280;9627;59.236;18.142;2022-07-04T08:00:19;100945.44;;;23.36;100.00
18987;BME280;9627;59.236;18.142;2022-07-04T08:02:46;100942.22;;;22.97;100.00
18987;BME280;9627;59.236;18.142;2022-07-04T08:05:30;100951.88;;;22.30;100.00
18987;BME280;9627;59.236;18.142;2022-07-04T08:07:56;100951.81;;;22.25;100.00
18987;BME280;9627;59.236;18.142;2022-07-04T08:10:26;100946.28;;;21.88;100.00
18987;BME280;9627;59.236;18.142;2022-07-04T08:12:52;100943.16;;;21.96;100.00
18987;BME280;9627;59.236;18.142;2022-07-04T08:15:21;100941.81;;;22.26;100.00
18987;BME280;9627;59.236;18.142;2022-07-04T08:17:47;100931.66;;;23.01;100.00
18987;BME280;9627;59.236;18.142;2022-07-04T08:20:14;100938.31;;;23.25;100.00
18987;BME280;9627;59.236;18.142;2022-07-04T08:22:41;100935.69;;;22.98;100.00
18987;BME280;9627;59.236;18.142;2022-07-04T08:25:08;100941.31;;;22.87;100.00
18987;BME280;9627;59.236;18.142;2022-07-04T08:27:37;100935.50;;;22.73;100.00
18987;BME280;9627;59.236;18.142;2022-07-04T08:30:04;100931.13;;;22.99;100.00
18987;BME280;9627;59.236;18.142;2022-07-04T08:32:31;100929.06;;;22.79;100.00
18987;BME280;9627;59.236;18.142;2022-07-04T08:34:57;100932.34;;;22.81;100.00
18987;BME280;9627;59.236;18.142;2022-07-04T08:37:23;100922.34;;;22.82;100.00
18987;BME280;9627;59.236;18.142;2022-07-04T08:39:50;100913.28;;;23.03;100.00
18987;BME280;9627;59.236;18.142;2022-07-04T08:42:18;100908.47;;;22.15;100.00
18987;BME280;9627;59.236;18.142;2022-07-04T08:44:48;100912.78;;;21.89;100.00
18987;BME280;9627;59.236;18.142;2022-07-04T08:47:16;100914.50;;;22.27;100.00
18987;BME280;9627;59.236;18.142;2022-07-04T08:49:44;100920.03;;;22.10;100.00
18987;BME280;9627;59.236;18.142;2022-07-04T08:52:12;100920.44;;;22.24;100.00
18987;BME280;9627;59.236;18.142;2022-07-04T08:54:41;100926.38;;;22.21;100.00
18987;BME280;9627;59.236;18.142;2022-07-04T08:57:25;100909.78;;;21.86;100.00
18987;BME280;9627;59.236;18.142;2022-07-04T09:00:11;100912.34;;;21.54;100.00
18987;BME280;9627;59.236;18.142;2022-07-04T09:02:38;100921.63;;;21.42;100.00
18987;BME280;9627;59.236;18.142;2022-07-04T09:05:05;100920.69;;;21.31;100.00
18987;BME280;9627;59.236;18.142;2022-07-04T09:07:32;100907.75;;;21.55;100.00
18987;BME280;9627;59.236;18.142;2022-07-04T09:09:59;100909.13;;;21.57;100.00
18987;BME280;9627;59.236;18.142;2022-07-04T09:12:26;100912.91;;;21.35;100.00
18987;BME280;9627;59.236;18.142;2022-07-04T09:14:52;100901.31;;;21.17;100.00
18987;BME280;9627;59.236;18.142;2022-07-04T09:17:21;100904.63;;;21.41;100.00
18987;BME280;9627;59.236;18.142;2022-07-04T09:22:30;100896.44;;;21.36;100.00
18987;BME280;9627;59.236;18.142;2022-07-04T09:24:56;100893.56;;;20.88;100.00
18987;BME280;9627;59.236;18.142;2022-07-04T09:27:30;100894.97;;;21.07;100.00
18987;BME280;9627;59.236;18.142;2022-07-04T09:29:57;100882.19;;;21.19;100.00
18987;BME280;9627;59.236;18.142;2022-07-04T09:32:34;100883.59;;;20.88;100.00
18987;BME280;9627;59.236;18.142;2022-07-04T09:35:02;100885.25;;;20.89;100.00
18987;BME280;9627;59.236;18.142;2022-07-04T09:37:33;100881.41;;;21.02;100.00
18987;BME280;9627;59.236;18.142;2022-07-04T09:39:59;100892.25;;;21.07;100.00
18987;BME280;9627;59.236;18.142;2022-07-04T09:42:26;100886.00;;;21.23;100.00
18987;BME280;9627;59.236;18.142;2022-07-04T09:45:03;100896.88;;;21.06;100.00
18987;BME280;9627;59.236;18.142;2022-07-04T09:47:30;100895.47;;;20.87;100.00
18987;BME280;9627;59.236;18.142;2022-07-04T09:49:59;100903.00;;;20.36;100.00
18987;BME280;9627;59.236;18.142;2022-07-04T09:52:25;100903.47;;;20.04;100.00
18987;BME280;9627;59.236;18.142;2022-07-04T09:54:56;100898.66;;;20.06;100.00
18987;BME280;9627;59.236;18.142;2022-07-04T09:57:23;100903.00;;;20.07;100.00
18987;BME280;9627;59.236;18.142;2022-07-04T09:59:49;100904.59;;;20.20;100.00
18987;BME280;9627;59.236;18.142;2022-07-04T10:02:16;100906.75;;;20.06;100.00
18987;BME280;9627;59.236;18.142;2022-07-04T10:04:43;100899.09;;;20.15;100.00
18987;BME280;9627;59.236;18.142;2022-07-04T10:07:12;100903.09;;;20.12;100.00
18987;BME280;9627;59.236;18.142;2022-07-04T10:09:55;100892.38;;;20.17;100.00
18987;BME280;9627;59.236;18.142;2022-07-04T10:12:24;100895.88;;;20.46;100.00
18987;BME280;9627;59.236;18.142;2022-07-04T10:14:51;100892.63;;;20.61;100.00
18987;BME280;9627;59.236;18.142;2022-07-04T10:17:17;100880.13;;;20.55;100.00
18987;BME280;9627;59.236;18.142;2022-07-04T10:19:45;100876.59;;;20.71;100.00
18987;BME280;9627;59.236;18.142;2022-07-04T10:22:14;100874.31;;;20.63;100.00
18987;BME280;9627;59.236;18.142;2022-07-04T10:24:40;100882.00;;;20.38;100.00
18987;BME280;9627;59.236;18.142;2022-07-04T10:27:07;100880.13;;;20.38;100.00
18987;BME280;9627;59.236;18.142;2022-07-04T10:29:34;100880.38;;;20.08;100.00
18987;BME280;9627;59.236;18.142;2022-07-04T10:32:01;100880.41;;;19.80;100.00
18987;BME280;9627;59.236;18.142;2022-07-04T10:34:28;100888.66;;;19.62;100.00
18987;BME280;9627;59.236;18.142;2022-07-04T10:36:55;100884.53;;;19.71;100.00
18987;BME280;9627;59.236;18.142;2022-07-04T10:39:23;100890.97;;;19.70;100.00
18987;BME280;9627;59.236;18.142;2022-07-04T10:41:58;100893.88;;;19.80;100.00
18987;BME280;9627;59.236;18.142;2022-07-04T10:44:26;100887.03;;;19.89;100.00
18987;BME280;9627;59.236;18.142;2022-07-04T10:47:01;100873.56;;;19.61;100.00
18987;BME280;9627;59.236;18.142;2022-07-04T10:49:28;100890.59;;;19.38;100.00
18987;BME280;9627;59.236;18.142;2022-07-04T10:51:57;100903.81;;;19.40;100.00
18987;BME280;9627;59.236;18.142;2022-07-04T10:54:30;100894.25;;;18.98;100.00
18987;BME280;9627;59.236;18.142;2022-07-04T10:56:57;100889.34;;;18.30;100.00
18987;BME280;9627;59.236;18.142;2022-07-04T10:59:32;100889.34;;;17.89;100.00
18987;BME280;9627;59.236;18.142;2022-07-04T11:04:47;100878.66;;;17.71;100.00
18987;BME280;9627;59.236;18.142;2022-07-04T11:07:14;100869.69;;;17.77;100.00
18987;BME280;9627;59.236;18.142;2022-07-04T11:09:43;100874.72;;;19.02;100.00
18987;BME280;9627;59.236;18.142;2022-07-04T11:12:11;100879.78;;;19.62;100.00
18987;BME280;9627;59.236;18.142;2022-07-04T11:14:40;100880.28;;;20.03;100.00
18987;BME280;9627;59.236;18.142;2022-07-04T11:17:08;100874.41;;;20.06;100.00
18987;BME280;9627;59.236;18.142;2022-07-04T11:19:35;100879.38;;;20.43;100.00
18987;BME280;9627;59.236;18.142;2022-07-04T11:22:03;100875.13;;;20.80;100.00
18987;BME280;9627;59.236;18.142;2022-07-04T11:24:30;100872.91;;;21.32;100.00
18987;BME280;9627;59.236;18.142;2022-07-04T11:26:59;100867.22;;;22.30;100.00
18987;BME280;9627;59.236;18.142;2022-07-04T11:29:27;100861.72;;;22.20;100.00
18987;BME280;9627;59.236;18.142;2022-07-04T11:31:54;100861.66;;;21.18;100.00
18987;BME280;9627;59.236;18.142;2022-07-04T11:34:22;100869.97;;;21.33;100.00
18987;BME280;9627;59.236;18.142;2022-07-04T11:36:49;100868.88;;;21.12;100.00
18987;BME280;9627;59.236;18.142;2022-07-04T11:39:17;100865.03;;;21.30;100.00
18987;BME280;9627;59.236;18.142;2022-07-04T11:41:46;100851.03;;;21.55;100.00
18987;BME280;9627;59.236;18.142;2022-07-04T11:44:33;100847.91;;;22.16;100.00
18987;BME280;9627;59.236;18.142;2022-07-04T11:47:17;100839.94;;;21.08;100.00
18987;BME280;9627;59.236;18.142;2022-07-04T11:49:45;100838.13;;;20.97;100.00
18987;BME280;9627;59.236;18.142;2022-07-04T11:52:12;100846.25;;;21.83;100.00
18987;BME280;9627;59.236;18.142;2022-07-04T11:54:40;100846.88;;;21.69;100.00
18987;BME280;9627;59.236;18.142;2022-07-04T11:59:54;100845.00;;;21.69;100.00
18987;BME280;9627;59.236;18.142;2022-07-04T12:02:21;100820.16;;;22.57;100.00
18987;BME280;9627;59.236;18.142;2022-07-04T12:04:47;100815.13;;;22.76;100.00
18987;BME280;9627;59.236;18.142;2022-07-04T12:07:15;100819.41;;;22.72;100.00
18987;BME280;9627;59.236;18.142;2022-07-04T12:09:42;100820.19;;;22.62;100.00
18987;BME280;9627;59.236;18.142;2022-07-04T12:12:09;100824.59;;;22.42;100.00
18987;BME280;9627;59.236;18.142;2022-07-04T12:14:36;100826.59;;;21.93;100.00
18987;BME280;9627;59.236;18.142;2022-07-04T12:22:37;100805.28;;;20.45;100.00
18987;BME280;9627;59.236;18.142;2022-07-04T12:25:05;100795.75;;;20.21;100.00
18987;BME280;9627;59.236;18.142;2022-07-04T12:27:32;100803.63;;;19.94;100.00
18987;BME280;9627;59.236;18.142;2022-07-04T12:29:59;100801.47;;;19.80;100.00
18987;BME280;9627;59.236;18.142;2022-07-04T12:32:46;100806.16;;;19.56;100.00
18987;BME280;9627;59.236;18.142;2022-07-04T12:35:32;100793.13;;;19.36;100.00
18987;BME280;9627;59.236;18.142;2022-07-04T12:38:04;100786.25;;;19.17;100.00
18987;BME280;9627;59.236;18.142;2022-07-04T12:40:31;100783.88;;;18.81;100.00
18987;BME280;9627;59.236;18.142;2022-07-04T12:42:58;100782.34;;;18.27;100.00
18987;BME280;9627;59.236;18.142;2022-07-04T12:45:25;100763.53;;;18.27;100.00
18987;BME280;9627;59.236;18.142;2022-07-04T12:47:52;100762.25;;;18.41;100.00
18987;BME280;9627;59.236;18.142;2022-07-04T12:50:24;100757.38;;;19.01;100.00
18987;BME280;9627;59.236;18.142;2022-07-04T12:52:51;100755.03;;;19.05;100.00
18987;BME280;9627;59.236;18.142;2022-07-04T12:55:19;100762.94;;;19.23;100.00
18987;BME280;9627;59.236;18.142;2022-07-04T12:57:46;100750.38;;;19.00;100.00